createdAt,value
2018-12-02T00:00:13.133Z,98.71
2018-12-02T00:01:13.127Z,99.12
2018-12-02T00:02:13.107Z,98.50
2018-12-02T00:03:13.101Z,98.71
2018-12-02T00:04:13.088Z,97.98
2018-12-02T00:05:13.081Z,98.39
2018-12-02T00:06:13.061Z,98.29
2018-12-02T00:07:13.054Z,98.08
2018-12-02T00:08:13.038Z,98.19
2018-12-02T00:10:54.285Z,98.39
2018-12-02T00:12:15.642Z,97.88
2018-12-02T00:13:47.590Z,97.72
2018-12-02T00:14:47.577Z,97.88
2018-12-02T00:15:47.571Z,97.72
2018-12-02T00:16:47.605Z,97.88
2018-12-02T00:17:47.536Z,97.72
2018-12-02T00:18:47.530Z,97.77
2018-12-02T00:19:47.521Z,98.08
2018-12-02T00:20:47.508Z,98.19
2018-12-02T00:21:47.501Z,97.98
2018-12-02T00:22:47.486Z,97.98
2018-12-02T00:23:47.476Z,97.98
2018-12-02T00:26:15.060Z,97.93
2018-12-02T00:27:15.053Z,97.72
2018-12-02T00:28:15.036Z,97.56
2018-12-02T00:29:34.672Z,97.52
2018-12-02T00:30:46.002Z,97.83
2018-12-02T00:33:14.986Z,97.52
2018-12-02T00:35:42.593Z,97.52
2018-12-02T00:37:01.170Z,97.10
2018-12-02T00:37:42.535Z,97.31
2018-12-02T00:38:42.523Z,97.10
2018-12-02T00:39:42.521Z,97.20
2018-12-02T00:40:42.506Z,97.00
2018-12-02T00:41:42.496Z,96.58
2018-12-02T00:42:42.478Z,96.89
2018-12-02T00:43:42.472Z,96.58
2018-12-02T00:44:42.466Z,96.79
2018-12-02T00:45:42.472Z,96.89
2018-12-02T00:46:42.441Z,96.89
2018-12-02T00:47:42.435Z,96.69
2018-12-02T00:48:42.421Z,96.89
2018-12-02T00:49:42.408Z,96.79
2018-12-02T00:50:42.406Z,96.48
2018-12-02T00:51:42.384Z,96.79
2018-12-02T00:52:42.388Z,96.79
2018-12-02T00:53:42.414Z,96.79
2018-12-02T00:54:42.353Z,96.89
2018-12-02T00:55:42.344Z,96.89
2018-12-02T00:56:42.335Z,96.58
2018-12-02T00:57:42.318Z,97.00
2018-12-02T00:59:01.960Z,96.37
2018-12-02T01:00:24.347Z,96.48
2018-12-02T01:01:24.342Z,96.79
2018-12-02T01:02:24.320Z,96.79
2018-12-02T01:03:24.316Z,96.69
2018-12-02T01:04:24.311Z,96.89
2018-12-02T01:05:24.297Z,96.54
2018-12-02T01:06:24.285Z,96.69
2018-12-02T01:07:24.313Z,96.79
2018-12-02T01:08:24.256Z,96.69
2018-12-02T01:09:24.251Z,96.64
2018-12-02T01:10:24.235Z,96.79
2018-12-02T01:11:24.224Z,96.37
2018-12-02T01:12:24.215Z,96.37
2018-12-02T01:13:24.198Z,96.69
2018-12-02T01:14:24.192Z,96.89
2018-12-02T01:15:24.190Z,96.89
2018-12-02T01:16:24.170Z,96.79
2018-12-02T01:17:24.159Z,96.89
2018-12-02T01:18:24.149Z,97.00
2018-12-02T01:19:24.138Z,96.89
2018-12-02T01:20:24.121Z,96.69
2018-12-02T01:21:24.114Z,96.27
2018-12-02T01:22:24.107Z,95.75
2018-12-02T01:23:24.096Z,95.75
2018-12-02T01:24:24.120Z,95.96
2018-12-02T01:25:24.069Z,95.86
2018-12-02T01:26:24.061Z,95.96
2018-12-02T01:27:24.043Z,95.34
2018-12-02T01:28:24.033Z,95.86
2018-12-02T01:29:24.036Z,96.27
2018-12-02T01:30:24.012Z,96.27
2018-12-02T01:31:24.009Z,96.17
2018-12-02T01:32:23.998Z,97.00
2018-12-02T01:33:23.976Z,96.89
2018-12-02T01:34:23.971Z,95.96
2018-12-02T01:35:23.967Z,95.96
2018-12-02T01:36:23.956Z,95.86
2018-12-02T01:37:23.942Z,96.06
2018-12-02T01:38:23.935Z,95.86
2018-12-02T01:39:23.924Z,95.75
2018-12-02T01:40:23.905Z,95.86
2018-12-02T01:41:23.907Z,96.17
2018-12-02T01:42:23.877Z,95.65
2018-12-02T01:43:23.866Z,96.37
2018-12-02T01:44:23.854Z,95.86
2018-12-02T01:45:23.842Z,95.96
2018-12-02T01:46:23.838Z,95.96
2018-12-02T01:47:23.828Z,96.27
2018-12-02T01:48:23.810Z,95.65
2018-12-02T01:49:23.803Z,95.65
2018-12-02T01:50:23.789Z,95.69
2018-12-02T01:51:23.788Z,95.69
2018-12-02T01:52:23.776Z,95.34
2018-12-02T01:53:23.763Z,95.75
2018-12-02T01:54:23.748Z,95.23
2018-12-02T01:55:23.738Z,95.34
2018-12-02T01:56:23.728Z,95.03
2018-12-02T01:57:23.727Z,95.13
2018-12-02T01:58:23.714Z,95.23
2018-12-02T01:59:23.690Z,95.13
2018-12-02T02:00:23.683Z,95.75
2018-12-02T02:01:23.676Z,95.75
2018-12-02T02:02:23.661Z,95.34
2018-12-02T02:03:23.698Z,95.23
2018-12-02T02:04:23.632Z,94.82
2018-12-02T02:05:23.621Z,95.13
2018-12-02T02:06:23.617Z,95.61
2018-12-02T02:07:23.615Z,94.61
2018-12-02T02:08:23.595Z,95.34
2018-12-02T02:09:23.583Z,94.57
2018-12-02T02:10:23.568Z,94.57
2018-12-02T02:11:23.557Z,95.40
2018-12-02T02:12:23.565Z,94.05
2018-12-02T02:13:23.533Z,95.09
2018-12-02T02:14:23.531Z,95.23
2018-12-02T02:15:23.518Z,94.88
2018-12-02T02:16:23.499Z,94.88
2018-12-02T02:17:23.489Z,95.03
2018-12-02T02:18:23.487Z,93.84
2018-12-02T02:19:23.469Z,94.40
2018-12-02T02:20:23.485Z,95.03
2018-12-02T02:21:23.448Z,94.61
2018-12-02T02:22:23.435Z,95.54
2018-12-02T02:23:23.421Z,94.71
2018-12-02T02:24:23.421Z,94.30
2018-12-02T02:25:23.433Z,95.44
2018-12-02T02:26:23.397Z,94.46
2018-12-02T02:27:23.392Z,95.44
2018-12-02T02:28:23.394Z,94.92
2018-12-02T02:30:50.962Z,95.13
2018-12-02T02:31:50.945Z,95.03
2018-12-02T02:32:50.944Z,95.44
2018-12-02T02:33:50.920Z,94.82
2018-12-02T02:34:50.908Z,93.78
2018-12-02T02:35:50.903Z,94.92
2018-12-02T02:36:50.884Z,94.61
2018-12-02T02:37:50.882Z,94.40
2018-12-02T02:38:50.868Z,94.71
2018-12-02T02:39:50.853Z,95.34
2018-12-02T02:40:50.846Z,95.44
2018-12-02T02:41:50.835Z,94.71
2018-12-02T02:42:50.823Z,95.54
2018-12-02T02:43:50.810Z,93.88
2018-12-02T02:44:50.794Z,94.82
2018-12-02T02:45:50.792Z,94.92
2018-12-02T02:46:50.785Z,93.84
2018-12-02T02:47:50.766Z,94.98
2018-12-02T02:48:50.757Z,95.09
2018-12-02T02:49:50.741Z,94.46
2018-12-02T02:50:50.733Z,94.05
2018-12-02T02:51:50.722Z,95.29
2018-12-02T02:52:50.709Z,95.09
2018-12-02T02:53:50.696Z,94.30
2018-12-02T02:54:50.691Z,94.67
2018-12-02T02:55:50.692Z,93.74
2018-12-02T02:56:50.678Z,93.63
2018-12-02T02:57:50.668Z,93.84
2018-12-02T02:58:50.651Z,93.53
2018-12-02T02:59:50.648Z,93.01
2018-12-02T03:00:50.625Z,93.32
2018-12-02T03:02:11.286Z,93.43
2018-12-02T03:03:33.689Z,93.74
2018-12-02T03:04:33.663Z,93.63
2018-12-02T03:06:15.729Z,93.84
2018-12-02T03:07:15.716Z,93.12
2018-12-02T03:08:15.697Z,93.95
2018-12-02T03:09:15.685Z,93.12
2018-12-02T03:10:15.687Z,94.05
2018-12-02T03:11:15.685Z,93.63
2018-12-02T03:12:15.662Z,93.22
2018-12-02T03:13:15.664Z,93.22
2018-12-02T03:14:15.634Z,93.63
2018-12-02T03:15:15.625Z,93.22
2018-12-02T03:16:15.609Z,93.74
2018-12-02T03:17:15.599Z,93.32
2018-12-02T03:18:15.596Z,93.43
2018-12-02T03:19:15.575Z,93.95
2018-12-02T03:20:15.575Z,94.15
2018-12-02T03:21:15.577Z,93.22
2018-12-02T03:22:15.554Z,93.74
2018-12-02T03:23:15.533Z,93.84
2018-12-02T03:24:15.530Z,93.32
2018-12-02T03:25:34.181Z,93.32
2018-12-02T03:26:57.556Z,93.12
2018-12-02T03:27:57.542Z,93.74
2018-12-02T03:28:57.563Z,93.63
2018-12-02T03:29:57.527Z,94.01
2018-12-02T03:30:57.511Z,93.80
2018-12-02T03:31:57.504Z,93.95
2018-12-02T03:32:57.485Z,93.95
2018-12-02T03:33:57.478Z,93.07
2018-12-02T03:34:57.458Z,93.63
2018-12-02T03:35:57.446Z,93.95
2018-12-02T03:36:57.442Z,93.84
2018-12-02T03:37:57.430Z,93.80
2018-12-02T03:38:57.414Z,93.70
2018-12-02T03:39:57.412Z,93.95
2018-12-02T03:40:57.400Z,93.63
2018-12-02T03:41:57.389Z,93.49
2018-12-02T03:42:57.376Z,93.90
2018-12-02T03:43:57.359Z,93.80
2018-12-02T03:44:57.355Z,93.80
2018-12-02T03:45:57.343Z,93.70
2018-12-02T03:46:57.327Z,93.70
2018-12-02T03:47:57.319Z,94.01
2018-12-02T03:48:57.311Z,94.21
2018-12-02T03:49:57.298Z,93.70
2018-12-02T03:50:57.287Z,93.80
2018-12-02T03:51:57.275Z,93.28
2018-12-02T03:52:57.265Z,93.22
2018-12-02T03:53:57.248Z,93.28
2018-12-02T03:54:57.241Z,92.97
2018-12-02T03:55:57.233Z,93.18
2018-12-02T03:56:57.224Z,93.80
2018-12-02T03:57:57.207Z,92.97
2018-12-02T03:58:57.194Z,93.18
2018-12-02T03:59:57.187Z,93.07
2018-12-02T04:00:57.170Z,93.07
2018-12-02T04:01:57.161Z,93.70
2018-12-02T04:02:57.152Z,93.70
2018-12-02T04:03:57.144Z,93.65
2018-12-02T04:04:57.127Z,94.01
2018-12-02T04:05:57.121Z,94.01
2018-12-02T04:06:57.109Z,93.65
2018-12-02T04:07:57.097Z,93.70
2018-12-02T04:08:57.092Z,93.65
2018-12-02T04:09:57.076Z,94.06
2018-12-02T04:10:57.066Z,93.13
2018-12-02T04:11:57.059Z,93.44
2018-12-02T04:12:57.053Z,93.96
2018-12-02T04:13:57.060Z,93.85
2018-12-02T04:14:57.027Z,93.75
2018-12-02T04:15:57.018Z,93.44
2018-12-02T04:16:57.007Z,93.02
2018-12-02T04:17:56.995Z,92.72
2018-12-02T04:18:56.979Z,92.61
2018-12-02T04:19:56.971Z,92.51
2018-12-02T04:20:56.959Z,92.82
2018-12-02T04:21:56.949Z,92.82
2018-12-02T04:22:56.943Z,92.61
2018-12-02T04:23:56.924Z,92.30
2018-12-02T04:24:56.916Z,92.20
2018-12-02T04:25:56.899Z,92.41
2018-12-02T04:26:56.889Z,92.51
2018-12-02T04:27:56.880Z,92.30
2018-12-02T04:28:56.871Z,92.47
2018-12-02T04:29:56.864Z,92.61
2018-12-02T04:30:56.855Z,92.20
2018-12-02T04:31:56.842Z,92.57
2018-12-02T04:32:56.826Z,92.61
2018-12-02T04:34:16.677Z,91.78
2018-12-02T04:35:38.879Z,91.89
2018-12-02T04:36:38.855Z,91.85
2018-12-02T04:37:38.850Z,91.95
2018-12-02T04:38:38.837Z,91.95
2018-12-02T04:39:38.825Z,91.95
2018-12-02T04:40:38.812Z,91.85
2018-12-02T04:42:00.418Z,91.95
2018-12-02T04:43:20.843Z,91.85
2018-12-02T04:44:40.482Z,91.64
2018-12-02T04:46:02.871Z,91.43
2018-12-02T04:47:02.866Z,91.33
2018-12-02T04:48:02.852Z,91.33
2018-12-02T04:49:02.842Z,91.33
2018-12-02T04:50:02.841Z,91.22
2018-12-02T04:51:02.828Z,91.33
2018-12-02T04:52:02.804Z,91.33
2018-12-02T04:53:02.792Z,91.33
2018-12-02T04:54:02.781Z,91.22
2018-12-02T04:55:02.781Z,91.43
2018-12-02T04:56:02.769Z,91.53
2018-12-02T04:57:02.753Z,91.43
2018-12-02T04:58:02.738Z,90.91
2018-12-02T04:59:02.728Z,91.33
2018-12-02T05:00:02.736Z,91.33
2018-12-02T05:01:02.705Z,91.12
2018-12-02T05:02:02.705Z,91.02
2018-12-02T05:03:02.683Z,90.81
2018-12-02T05:04:02.671Z,91.02
2018-12-02T05:05:02.666Z,91.02
2018-12-02T05:06:02.654Z,91.12
2018-12-02T05:07:02.650Z,91.12
2018-12-02T05:08:02.634Z,90.81
2018-12-02T05:09:02.621Z,90.50
2018-12-02T05:10:02.608Z,91.02
2018-12-02T05:11:02.600Z,90.70
2018-12-02T05:12:02.587Z,90.50
2018-12-02T05:13:02.585Z,90.60
2018-12-02T05:14:02.563Z,90.81
2018-12-02T05:15:02.551Z,90.50
2018-12-02T05:16:02.541Z,90.60
2018-12-02T05:17:02.526Z,90.60
2018-12-02T05:18:02.525Z,90.91
2018-12-02T05:19:02.506Z,90.70
2018-12-02T05:20:02.492Z,91.02
2018-12-02T05:21:02.486Z,90.60
2018-12-02T05:22:02.470Z,90.23
2018-12-02T05:23:02.467Z,90.29
2018-12-02T05:24:02.455Z,91.02
2018-12-02T05:25:02.441Z,90.70
2018-12-02T05:26:02.429Z,90.70
2018-12-02T05:27:02.427Z,90.19
2018-12-02T05:28:02.405Z,90.81
2018-12-02T05:29:02.404Z,90.50
2018-12-02T05:30:02.382Z,90.70
2018-12-02T05:31:02.369Z,90.29
2018-12-02T05:32:02.365Z,90.70
2018-12-02T05:33:02.353Z,90.60
2018-12-02T05:34:02.338Z,90.70
2018-12-02T05:35:02.340Z,90.60
2018-12-02T05:36:02.314Z,90.50
2018-12-02T05:37:02.307Z,90.70
2018-12-02T05:38:02.307Z,90.19
2018-12-02T05:39:02.285Z,90.50
2018-12-02T05:40:02.272Z,90.60
2018-12-02T05:41:02.259Z,90.50
2018-12-02T05:42:02.248Z,89.87
2018-12-02T05:43:21.891Z,90.08
2018-12-02T05:44:02.229Z,90.04
2018-12-02T05:45:02.214Z,90.08
2018-12-02T05:46:02.214Z,89.87
2018-12-02T05:47:02.191Z,89.94
2018-12-02T05:48:02.179Z,89.87
2018-12-02T05:49:02.168Z,89.36
2018-12-02T05:50:02.168Z,89.42
2018-12-02T05:51:02.154Z,89.04
2018-12-02T05:52:02.150Z,89.21
2018-12-02T05:53:02.124Z,89.15
2018-12-02T05:54:02.116Z,89.11
2018-12-02T05:55:02.107Z,89.42
2018-12-02T05:56:02.092Z,89.36
2018-12-02T05:57:02.091Z,89.21
2018-12-02T05:58:02.068Z,89.42
2018-12-02T05:59:02.065Z,89.21
2018-12-02T06:00:02.050Z,88.79
2018-12-02T06:01:02.065Z,89.31
2018-12-02T06:02:02.035Z,88.79
2018-12-02T06:03:02.035Z,89.21
2018-12-02T06:04:02.004Z,88.59
2018-12-02T06:05:01.998Z,88.59
2018-12-02T06:06:01.983Z,88.79
2018-12-02T06:07:01.972Z,88.59
2018-12-02T06:08:01.960Z,88.90
2018-12-02T06:09:01.953Z,88.59
2018-12-02T06:10:01.943Z,88.59
2018-12-02T06:11:01.924Z,88.69
2018-12-02T06:12:01.926Z,88.69
2018-12-02T06:13:01.904Z,88.69
2018-12-02T06:14:01.901Z,88.69
2018-12-02T06:15:01.885Z,88.69
2018-12-02T06:16:01.875Z,89.11
2018-12-02T06:17:01.866Z,88.90
2018-12-02T06:18:01.857Z,88.79
2018-12-02T06:19:01.839Z,88.79
2018-12-02T06:20:04.647Z,88.18
2018-12-02T06:21:01.831Z,88.28
2018-12-02T06:22:01.819Z,87.97
2018-12-02T06:23:01.801Z,87.76
2018-12-02T06:24:01.792Z,87.55
2018-12-02T06:25:01.779Z,87.97
2018-12-02T06:26:01.774Z,88.59
2018-12-02T06:27:01.759Z,87.93
2018-12-02T06:28:01.743Z,87.93
2018-12-02T06:29:01.730Z,88.24
2018-12-02T06:30:01.738Z,88.39
2018-12-02T06:31:01.715Z,88.69
2018-12-02T06:32:01.697Z,87.76
2018-12-02T06:33:01.686Z,88.48
2018-12-02T06:34:01.676Z,88.59
2018-12-02T06:35:01.664Z,87.87
2018-12-02T06:36:01.653Z,88.90
2018-12-02T06:37:01.644Z,90.62
2018-12-02T06:38:01.629Z,90.00
2018-12-02T06:39:01.615Z,88.76
2018-12-02T06:40:01.611Z,88.65
2018-12-02T06:41:01.591Z,88.28
2018-12-02T06:42:01.591Z,87.72
2018-12-02T06:43:01.570Z,87.93
2018-12-02T06:44:01.559Z,88.65
2018-12-02T06:45:01.551Z,88.92
2018-12-02T06:46:01.536Z,89.13
2018-12-02T06:47:01.540Z,87.99
2018-12-02T06:48:01.521Z,87.37
2018-12-02T06:49:01.511Z,86.85
2018-12-02T06:50:01.510Z,86.99
2018-12-02T06:51:01.490Z,86.89
2018-12-02T06:52:01.482Z,86.58
2018-12-02T06:53:01.471Z,86.47
2018-12-02T06:54:01.466Z,86.47
2018-12-02T06:55:01.442Z,86.99
2018-12-02T06:56:01.425Z,86.65
2018-12-02T06:57:01.420Z,86.89
2018-12-02T06:58:01.412Z,86.68
2018-12-02T06:59:01.404Z,86.58
2018-12-02T07:00:01.385Z,86.37
2018-12-02T07:01:01.374Z,86.37
2018-12-02T07:02:01.363Z,86.47
2018-12-02T07:03:01.356Z,86.37
2018-12-02T07:04:01.341Z,86.47
2018-12-02T07:05:01.375Z,86.79
2018-12-02T07:06:01.318Z,86.58
2018-12-02T07:07:01.319Z,86.47
2018-12-02T07:08:01.292Z,86.47
2018-12-02T07:09:01.290Z,86.47
2018-12-02T07:10:01.285Z,86.79
2018-12-02T07:11:01.271Z,86.68
2018-12-02T07:12:01.257Z,86.47
2018-12-02T07:13:01.246Z,86.37
2018-12-02T07:14:01.235Z,86.99
2018-12-02T07:15:01.226Z,86.58
2018-12-02T07:16:01.214Z,86.44
2018-12-02T07:17:01.206Z,86.47
2018-12-02T07:18:01.201Z,86.17
2018-12-02T07:19:01.181Z,85.96
2018-12-02T07:20:01.170Z,86.65
2018-12-02T07:21:01.156Z,86.68
2018-12-02T07:22:01.140Z,86.68
2018-12-02T07:23:01.136Z,86.65
2018-12-02T07:24:01.117Z,86.44
2018-12-02T07:25:01.109Z,86.75
2018-12-02T07:26:01.093Z,86.23
2018-12-02T07:27:01.098Z,86.33
2018-12-02T07:28:01.085Z,85.61
2018-12-02T07:29:01.067Z,85.86
2018-12-02T07:30:01.066Z,85.82
2018-12-02T07:31:01.043Z,85.75
2018-12-02T07:32:01.031Z,85.75
2018-12-02T07:33:01.050Z,85.96
2018-12-02T07:34:01.020Z,85.86
2018-12-02T07:35:01.005Z,85.86
2018-12-02T07:36:00.996Z,85.92
2018-12-02T07:37:00.982Z,85.71
2018-12-02T07:38:00.968Z,86.07
2018-12-02T07:39:00.973Z,86.02
2018-12-02T07:40:00.943Z,85.75
2018-12-02T07:41:00.930Z,85.40
2018-12-02T07:42:00.917Z,85.86
2018-12-02T07:43:00.907Z,86.07
2018-12-02T07:44:00.894Z,86.27
2018-12-02T07:45:00.879Z,85.92
2018-12-02T07:46:00.873Z,85.50
2018-12-02T07:47:00.858Z,85.55
2018-12-02T07:48:00.849Z,85.75
2018-12-02T07:49:00.844Z,85.09
2018-12-02T07:50:00.838Z,84.99
2018-12-02T07:51:00.828Z,84.88
2018-12-02T07:52:00.804Z,85.30
2018-12-02T07:53:00.792Z,85.40
2018-12-02T07:54:00.784Z,84.78
2018-12-02T07:55:00.773Z,84.99
2018-12-02T07:56:00.757Z,85.24
2018-12-02T07:57:20.403Z,85.30
2018-12-02T07:58:42.802Z,84.88
2018-12-02T08:00:01.459Z,84.37
2018-12-02T08:02:10.939Z,84.78
2018-12-02T08:03:30.573Z,84.16
2018-12-02T08:04:10.911Z,84.88
2018-12-02T08:05:31.558Z,84.37
2018-12-02T08:06:52.952Z,84.37
2018-12-02T08:07:52.947Z,84.47
2018-12-02T08:08:52.988Z,84.06
2018-12-02T08:09:52.924Z,84.58
2018-12-02T08:10:52.908Z,84.16
2018-12-02T08:12:11.543Z,84.16
2018-12-02T08:13:12.538Z,84.37
2018-12-02T08:14:35.958Z,84.16
2018-12-02T08:15:35.940Z,84.68
2018-12-02T08:16:35.936Z,84.88
2018-12-02T08:17:35.919Z,84.58
2018-12-02T08:18:35.897Z,85.40
2018-12-02T08:19:35.893Z,84.78
2018-12-02T08:20:55.530Z,84.27
2018-12-02T08:22:17.913Z,84.16
2018-12-02T08:23:17.906Z,84.27
2018-12-02T08:24:17.892Z,84.06
2018-12-02T08:25:17.934Z,84.16
2018-12-02T08:26:17.868Z,84.68
2018-12-02T08:27:17.862Z,84.68
2018-12-02T08:28:17.853Z,84.53
2018-12-02T08:29:17.835Z,84.53
2018-12-02T08:30:17.826Z,83.81
2018-12-02T08:31:17.822Z,84.01
2018-12-02T08:32:17.806Z,84.01
2018-12-02T08:33:17.795Z,84.33
2018-12-02T08:34:36.425Z,83.81
2018-12-02T08:35:59.829Z,83.81
2018-12-02T08:36:59.817Z,83.71
2018-12-02T08:37:59.806Z,83.61
2018-12-02T08:38:59.795Z,83.81
2018-12-02T08:39:59.789Z,83.40
2018-12-02T08:40:59.774Z,83.19
2018-12-02T08:41:59.759Z,83.40
2018-12-02T08:42:59.745Z,83.40
2018-12-02T08:43:59.742Z,82.78
2018-12-02T08:44:59.728Z,83.09
2018-12-02T08:45:59.720Z,83.71
2018-12-02T08:46:59.710Z,83.19
2018-12-02T08:47:59.692Z,82.95
2018-12-02T08:48:59.685Z,82.84
2018-12-02T08:49:59.670Z,82.98
2018-12-02T08:50:59.661Z,82.95
2018-12-02T08:51:59.661Z,83.05
2018-12-02T08:52:59.641Z,82.74
2018-12-02T08:53:59.622Z,82.64
2018-12-02T08:54:59.616Z,83.25
2018-12-02T08:55:59.599Z,82.74
2018-12-02T08:56:59.588Z,82.64
2018-12-02T08:57:59.585Z,82.32
2018-12-02T08:58:59.577Z,82.64
2018-12-02T08:59:59.561Z,82.39
2018-12-02T09:00:59.544Z,82.39
2018-12-02T09:01:59.539Z,82.39
2018-12-02T09:02:59.522Z,82.22
2018-12-02T09:03:59.515Z,82.12
2018-12-02T09:04:59.501Z,82.22
2018-12-02T09:05:59.493Z,82.01
2018-12-02T09:06:59.480Z,82.22
2018-12-02T09:07:59.477Z,81.98
2018-12-02T09:08:59.462Z,82.01
2018-12-02T09:09:59.717Z,82.53
2018-12-02T09:10:59.435Z,82.29
2018-12-02T09:11:59.428Z,82.08
2018-12-02T09:12:59.417Z,81.56
2018-12-02T09:13:59.408Z,81.56
2018-12-02T09:14:59.420Z,81.11
2018-12-02T09:15:59.385Z,81.63
2018-12-02T09:16:59.367Z,81.15
2018-12-02T09:17:59.360Z,81.42
2018-12-02T09:18:59.357Z,81.52
2018-12-02T09:19:59.338Z,81.11
2018-12-02T09:20:59.341Z,81.01
2018-12-02T09:21:59.316Z,81.01
2018-12-02T09:22:59.298Z,81.21
2018-12-02T09:23:59.290Z,81.32
2018-12-02T09:24:59.289Z,81.11
2018-12-02T09:25:59.271Z,81.42
2018-12-02T09:26:59.281Z,81.07
2018-12-02T09:27:59.248Z,81.21
2018-12-02T09:28:59.240Z,80.76
2018-12-02T09:29:59.222Z,80.70
2018-12-02T09:30:59.213Z,80.90
2018-12-02T09:31:59.219Z,81.21
2018-12-02T09:32:59.242Z,81.42
2018-12-02T09:33:59.182Z,81.52
2018-12-02T09:34:59.179Z,81.84
2018-12-02T09:35:59.159Z,81.52
2018-12-02T09:36:59.158Z,81.42
2018-12-02T09:37:59.145Z,81.18
2018-12-02T09:38:59.132Z,80.90
2018-12-02T09:39:59.121Z,80.87
2018-12-02T09:40:59.104Z,80.35
2018-12-02T09:41:59.117Z,80.46
2018-12-02T09:42:59.091Z,80.76
2018-12-02T09:43:59.071Z,80.90
2018-12-02T09:44:59.069Z,80.87
2018-12-02T09:45:59.068Z,81.32
2018-12-02T09:46:59.054Z,80.97
2018-12-02T09:48:18.674Z,81.42
2018-12-02T09:49:41.065Z,81.18
2018-12-02T09:50:41.056Z,81.38
2018-12-02T09:51:41.037Z,81.18
2018-12-02T09:52:41.035Z,80.97
2018-12-02T09:53:41.009Z,81.07
2018-12-02T09:54:41.000Z,80.97
2018-12-02T09:55:40.992Z,81.32
2018-12-02T09:56:40.983Z,81.49
2018-12-02T09:57:40.969Z,81.38
2018-12-02T09:58:40.959Z,81.49
2018-12-02T09:59:40.949Z,81.38
2018-12-02T10:00:40.938Z,81.28
2018-12-02T10:01:40.929Z,81.38
2018-12-02T10:02:40.915Z,81.07
2018-12-02T10:03:40.906Z,81.18
2018-12-02T10:04:40.888Z,81.59
2018-12-02T10:05:40.880Z,81.07
2018-12-02T10:06:40.867Z,81.59
2018-12-02T10:07:40.856Z,81.38
2018-12-02T10:08:40.850Z,81.28
2018-12-02T10:09:40.846Z,81.28
2018-12-02T10:10:40.838Z,81.49
2018-12-02T10:11:40.823Z,81.38
2018-12-02T10:12:40.812Z,81.49
2018-12-02T10:13:40.807Z,81.70
2018-12-02T10:14:40.789Z,81.76
2018-12-02T10:15:40.779Z,81.96
2018-12-02T10:16:40.768Z,81.49
2018-12-02T10:17:40.793Z,81.70
2018-12-02T10:18:40.750Z,81.59
2018-12-02T10:19:40.731Z,81.76
2018-12-02T10:20:40.723Z,81.66
2018-12-02T10:21:40.716Z,81.56
2018-12-02T10:22:40.701Z,81.45
2018-12-02T10:23:40.680Z,81.35
2018-12-02T10:24:40.667Z,81.56
2018-12-02T10:25:40.662Z,81.56
2018-12-02T10:26:40.651Z,81.35
2018-12-02T10:27:40.641Z,81.24
2018-12-02T10:28:40.624Z,81.14
2018-12-02T10:30:01.260Z,81.35
2018-12-02T10:31:11.576Z,81.35
2018-12-02T10:32:12.429Z,81.41
2018-12-02T10:33:11.567Z,81.56
2018-12-02T10:34:31.199Z,81.24
2018-12-02T10:36:40.549Z,81.41
2018-12-02T10:38:01.133Z,80.90
2018-12-02T10:39:22.585Z,80.65
2018-12-02T10:41:50.155Z,80.65
2018-12-02T10:42:50.139Z,80.14
2018-12-02T10:43:50.156Z,80.65
2018-12-02T10:44:50.123Z,80.04
2018-12-02T10:45:50.103Z,80.14
2018-12-02T10:46:50.097Z,80.55
2018-12-02T10:47:50.094Z,80.55
2018-12-02T10:48:50.073Z,80.34
2018-12-02T10:49:50.059Z,80.55
2018-12-02T10:50:50.053Z,80.55
2018-12-02T10:51:50.045Z,80.76
2018-12-02T10:52:50.028Z,80.96
2018-12-02T10:53:50.017Z,80.86
2018-12-02T10:54:50.001Z,80.93
2018-12-02T10:55:49.996Z,80.93
2018-12-02T10:56:49.996Z,80.93
2018-12-02T10:57:49.987Z,80.62
2018-12-02T10:58:49.967Z,80.72
2018-12-02T10:59:49.958Z,80.82
2018-12-02T11:00:49.943Z,80.82
2018-12-02T11:01:49.931Z,80.65
2018-12-02T11:02:49.923Z,80.72
2018-12-02T11:03:49.913Z,80.82
2018-12-02T11:04:49.901Z,80.72
2018-12-02T11:05:49.897Z,80.30
2018-12-02T11:06:49.881Z,80.10
2018-12-02T11:07:49.866Z,80.34
2018-12-02T11:08:49.858Z,80.41
2018-12-02T11:09:49.846Z,80.62
2018-12-02T11:10:49.836Z,80.62
2018-12-02T11:11:49.824Z,82.06
2018-12-02T11:12:49.808Z,81.75
2018-12-02T11:13:49.803Z,81.44
2018-12-02T11:14:49.782Z,81.75
2018-12-02T11:15:49.782Z,81.75
2018-12-02T11:16:49.763Z,81.30
2018-12-02T11:17:49.763Z,80.62
2018-12-02T11:18:49.742Z,80.47
2018-12-02T11:19:49.749Z,81.30
2018-12-02T11:20:49.724Z,80.99
2018-12-02T11:21:49.708Z,80.79
2018-12-02T11:22:49.699Z,80.79
2018-12-02T11:23:49.689Z,80.58
2018-12-02T11:24:49.676Z,80.89
2018-12-02T11:25:49.673Z,81.20
2018-12-02T11:26:49.649Z,81.81
2018-12-02T11:27:49.652Z,81.05
2018-12-02T11:28:49.634Z,80.54
2018-12-02T11:29:49.617Z,80.06
2018-12-02T11:30:49.616Z,80.58
2018-12-02T11:31:49.608Z,80.68
2018-12-02T11:32:49.588Z,81.30
2018-12-02T11:33:49.573Z,81.05
2018-12-02T11:34:49.572Z,81.05
2018-12-02T11:35:49.561Z,80.44
2018-12-02T11:36:49.554Z,80.89
2018-12-02T11:37:49.548Z,81.09
2018-12-02T11:38:49.526Z,80.99
2018-12-02T11:39:49.513Z,81.16
2018-12-02T11:40:49.506Z,81.81
2018-12-02T11:41:49.492Z,81.37
2018-12-02T11:42:49.490Z,81.20
2018-12-02T11:43:49.468Z,81.26
2018-12-02T11:44:49.459Z,81.09
2018-12-02T11:45:49.443Z,80.89
2018-12-02T11:46:49.445Z,81.30
2018-12-02T11:47:49.421Z,80.85
2018-12-02T11:48:49.419Z,80.79
2018-12-02T11:49:49.399Z,81.16
2018-12-02T11:50:50.639Z,81.37
2018-12-02T11:51:49.380Z,81.26
2018-12-02T11:52:49.377Z,81.37
2018-12-02T11:53:49.363Z,81.30
2018-12-02T11:54:49.346Z,81.16
2018-12-02T11:55:49.341Z,81.09
2018-12-02T11:56:49.328Z,81.26
2018-12-02T11:57:49.318Z,81.40
2018-12-02T11:58:49.310Z,81.77
2018-12-02T11:59:49.301Z,81.30
2018-12-02T12:00:49.280Z,81.26
2018-12-02T12:01:49.272Z,80.99
2018-12-02T12:02:49.256Z,81.37
2018-12-02T12:03:49.243Z,81.40
2018-12-02T12:04:49.239Z,81.98
2018-12-02T12:05:49.223Z,82.02
2018-12-02T12:06:49.220Z,81.88
2018-12-02T12:07:49.201Z,82.19
2018-12-02T12:08:49.194Z,82.02
2018-12-02T12:09:49.188Z,82.19
2018-12-02T12:10:49.187Z,82.29
2018-12-02T12:11:49.162Z,82.12
2018-12-02T12:12:49.151Z,82.02
2018-12-02T12:13:49.130Z,81.47
2018-12-02T12:14:49.125Z,81.81
2018-12-02T12:15:49.113Z,82.12
2018-12-02T12:16:49.103Z,81.88
2018-12-02T12:17:49.095Z,83.05
2018-12-02T12:18:49.082Z,82.12
2018-12-02T12:19:49.065Z,81.77
2018-12-02T12:20:49.055Z,82.02
2018-12-02T12:21:49.058Z,81.92
2018-12-02T12:22:49.034Z,81.71
2018-12-02T12:23:49.023Z,82.12
2018-12-02T12:24:49.012Z,82.02
2018-12-02T12:25:49.004Z,82.23
2018-12-02T12:26:48.991Z,82.95
2018-12-02T12:27:49.039Z,83.05
2018-12-02T12:28:48.971Z,82.54
2018-12-02T12:29:48.964Z,82.95
2018-12-02T12:30:48.945Z,82.84
2018-12-02T12:31:48.936Z,82.84
2018-12-02T12:32:48.922Z,83.36
2018-12-02T12:33:48.910Z,83.36
2018-12-02T12:34:48.904Z,83.36
2018-12-02T12:35:48.892Z,83.77
2018-12-02T12:36:48.881Z,83.67
2018-12-02T12:37:48.866Z,83.36
2018-12-02T12:38:48.858Z,83.56
2018-12-02T12:39:48.857Z,84.29
2018-12-02T12:40:48.835Z,84.08
2018-12-02T12:41:48.828Z,84.08
2018-12-02T12:42:48.821Z,84.08
2018-12-02T12:43:48.806Z,84.08
2018-12-02T12:44:48.798Z,84.49
2018-12-02T12:45:48.788Z,84.49
2018-12-02T12:46:48.772Z,85.22
2018-12-02T12:47:48.761Z,85.31
2018-12-02T12:48:48.743Z,84.08
2018-12-02T12:49:48.742Z,84.91
2018-12-02T12:50:48.736Z,85.01
2018-12-02T12:51:48.712Z,84.49
2018-12-02T12:52:48.710Z,85.31
2018-12-02T12:53:48.702Z,85.36
2018-12-02T12:54:48.682Z,85.63
2018-12-02T12:55:50.953Z,85.63
2018-12-02T12:56:48.669Z,85.77
2018-12-02T12:57:48.649Z,85.46
2018-12-02T13:00:16.234Z,86.08
2018-12-02T13:01:16.232Z,86.60
2018-12-02T13:02:16.211Z,87.01
2018-12-02T13:03:16.212Z,87.11
2018-12-02T13:04:16.191Z,87.63
2018-12-02T13:05:35.856Z,87.42
2018-12-02T13:06:58.224Z,88.14
2018-12-02T13:07:58.198Z,88.14
2018-12-02T13:08:58.188Z,87.93
2018-12-02T13:09:58.178Z,87.52
2018-12-02T13:10:58.184Z,88.24
2018-12-02T13:11:58.158Z,87.93
2018-12-02T13:12:58.147Z,87.63
2018-12-02T13:13:58.131Z,87.32
2018-12-02T13:14:58.125Z,87.73
2018-12-02T13:15:58.119Z,87.42
2018-12-02T13:16:58.105Z,87.63
2018-12-02T13:17:58.093Z,88.14